createdAt,value
2019-04-30T00:00:18.311Z,99822.77
2019-04-30T00:03:39.073Z,99826.59
2019-04-30T00:06:41.142Z,99826.81
2019-04-30T00:09:44.959Z,99825.91
2019-04-30T00:12:47.260Z,99835.58
2019-04-30T00:15:52.807Z,99834.10
2019-04-30T00:18:59.875Z,99837.42
2019-04-30T00:22:00.360Z,99835.13
2019-04-30T00:25:00.746Z,99833.32
2019-04-30T00:28:07.230Z,99843.42
2019-04-30T00:31:06.631Z,99839.74
2019-04-30T00:34:08.686Z,99834.11
2019-04-30T00:37:14.002Z,99834.33
2019-04-30T00:40:15.375Z,99831.56
2019-04-30T00:43:17.473Z,99831.56
2019-04-30T00:46:25.306Z,99839.84
2019-04-30T00:49:27.293Z,99838.67
2019-04-30T00:52:33.848Z,99836.62
2019-04-30T00:55:38.147Z,99832.33
2019-04-30T00:58:39.459Z,99821.61
2019-04-30T01:01:48.096Z,99816.47
2019-04-30T01:04:51.654Z,99816.00
2019-04-30T01:07:55.013Z,99817.19
2019-04-30T01:10:59.791Z,99807.97
2019-04-30T01:14:00.886Z,99811.47
2019-04-30T01:17:03.861Z,99812.80
2019-04-30T01:20:09.395Z,99809.63
2019-04-30T01:23:14.740Z,99802.05
2019-04-30T01:26:18.605Z,99801.56
2019-04-30T01:29:20.586Z,99796.83
2019-04-30T01:32:22.500Z,99799.59
2019-04-30T01:35:30.904Z,99798.98
2019-04-30T01:38:28.780Z,99801.42
2019-04-30T01:41:31.431Z,99797.36
2019-04-30T01:44:33.593Z,99800.36
2019-04-30T01:47:35.500Z,99791.92
2019-04-30T01:50:38.631Z,99781.36
2019-04-30T01:53:43.663Z,99778.53
2019-04-30T01:56:52.672Z,99775.38
2019-04-30T02:00:02.173Z,99782.42
2019-04-30T02:03:05.489Z,99778.06
2019-04-30T02:06:09.135Z,99789.90
2019-04-30T02:09:11.317Z,99792.81
2019-04-30T02:12:13.187Z,99794.39
2019-04-30T02:15:15.119Z,99802.87
2019-04-30T02:18:17.021Z,99808.30
2019-04-30T02:21:19.431Z,99817.87
2019-04-30T02:24:21.855Z,99809.43
2019-04-30T02:27:23.743Z,99811.85
2019-04-30T02:30:25.666Z,99811.48
2019-04-30T02:33:30.715Z,99810.63
2019-04-30T02:36:34.628Z,99812.78
2019-04-30T02:39:36.542Z,99819.63
2019-04-30T02:42:39.798Z,99817.73
2019-04-30T02:45:45.101Z,99812.05
2019-04-30T02:48:50.476Z,99826.27
2019-04-30T02:51:55.297Z,99820.59
2019-04-30T02:54:59.315Z,99817.11
2019-04-30T02:58:01.704Z,99817.70
2019-04-30T03:01:03.557Z,99817.11
2019-04-30T03:04:05.455Z,99829.72
2019-04-30T03:07:09.767Z,99820.14
2019-04-30T03:10:11.445Z,99827.20
2019-04-30T03:13:13.337Z,99829.55
2019-04-30T03:16:17.070Z,99835.94
2019-04-30T03:19:40.245Z,99837.88
2019-04-30T03:22:42.774Z,99840.38
2019-04-30T03:25:44.651Z,99833.56
2019-04-30T03:28:49.185Z,99838.28
2019-04-30T03:31:52.438Z,99834.69
2019-04-30T03:34:54.357Z,99839.60
2019-04-30T03:37:59.307Z,99835.00
2019-04-30T03:41:01.299Z,99838.09
2019-04-30T03:44:17.374Z,99841.66
2019-04-30T03:47:10.583Z,99840.84
2019-04-30T03:50:11.945Z,99849.70
2019-04-30T03:53:13.876Z,99858.80
2019-04-30T03:56:15.777Z,99848.37
2019-04-30T03:59:19.972Z,99848.91
2019-04-30T04:02:26.046Z,99855.85
2019-04-30T04:05:44.819Z,99855.91
2019-04-30T04:08:49.045Z,99850.09
2019-04-30T04:11:51.246Z,99858.99
2019-04-30T04:14:53.197Z,99851.83
2019-04-30T04:17:55.143Z,99857.89
2019-04-30T04:21:08.728Z,99862.89
2019-04-30T04:24:00.959Z,99869.23
2019-04-30T04:27:03.936Z,99856.52
2019-04-30T04:30:10.725Z,99866.97
2019-04-30T04:33:12.760Z,99868.86
2019-04-30T04:36:14.757Z,99863.09
2019-04-30T04:39:16.701Z,99869.63
2019-04-30T04:42:19.584Z,99864.66
2019-04-30T04:45:21.954Z,99869.63
2019-04-30T04:48:23.926Z,99870.75
2019-04-30T04:51:36.718Z,99867.03
2019-04-30T04:54:30.230Z,99870.32
2019-04-30T04:57:32.296Z,99877.99
2019-04-30T05:00:34.164Z,99875.14
2019-04-30T05:03:39.923Z,99877.75
2019-04-30T05:06:41.855Z,99878.47
2019-04-30T05:09:43.859Z,99878.23
2019-04-30T05:12:45.740Z,99883.45
2019-04-30T05:15:51.293Z,99884.00
2019-04-30T05:18:51.586Z,99885.05
2019-04-30T05:21:53.562Z,99885.58
2019-04-30T05:24:55.525Z,99894.48
2019-04-30T05:27:58.672Z,99884.00
2019-04-30T05:31:00.850Z,99892.59
2019-04-30T05:34:03.007Z,99896.58
2019-04-30T05:37:05.038Z,99897.45
2019-04-30T05:40:09.207Z,99892.61
2019-04-30T05:43:11.325Z,99895.02
2019-04-30T05:46:14.134Z,99897.91
2019-04-30T05:49:16.236Z,99903.66
2019-04-30T05:52:19.914Z,99905.55
2019-04-30T05:55:22.108Z,99893.00
2019-04-30T05:58:24.095Z,99897.95
2019-04-30T06:01:26.080Z,99906.50
2019-04-30T06:04:29.444Z,99905.49
2019-04-30T06:07:31.528Z,99904.78
2019-04-30T06:10:35.448Z,99910.02
2019-04-30T06:13:45.228Z,99913.73
2019-04-30T06:17:06.085Z,99915.09
2019-04-30T06:20:17.872Z,99916.70
2019-04-30T06:23:12.159Z,99925.46
2019-04-30T06:26:14.268Z,99932.73
2019-04-30T06:29:16.235Z,99925.62
2019-04-30T06:32:18.868Z,99928.64
2019-04-30T06:35:20.989Z,99928.97
2019-04-30T06:38:22.889Z,99927.54
2019-04-30T06:41:24.931Z,99924.98
2019-04-30T06:44:37.009Z,99927.67
2019-04-30T06:47:33.603Z,99930.61
2019-04-30T06:50:35.927Z,99924.37
2019-04-30T06:53:39.166Z,99928.94
2019-04-30T06:56:41.220Z,99932.87
2019-04-30T06:59:43.259Z,99928.39
2019-04-30T07:02:46.666Z,99923.31
2019-04-30T07:05:49.211Z,99929.80
2019-04-30T07:09:06.324Z,99923.63
2019-04-30T07:12:27.213Z,99934.28
2019-04-30T07:15:22.809Z,99941.94
2019-04-30T07:18:24.764Z,99937.31
2019-04-30T07:21:29.434Z,99951.25
2019-04-30T07:24:31.668Z,99946.81
2019-04-30T07:27:33.813Z,99951.12
2019-04-30T07:30:35.843Z,99955.16
2019-04-30T07:33:39.608Z,99952.24
2019-04-30T07:36:48.289Z,99941.84
2019-04-30T07:39:45.532Z,99945.84
2019-04-30T07:42:49.317Z,99944.33
2019-04-30T07:45:51.469Z,99944.33
2019-04-30T07:48:53.448Z,99940.94
2019-04-30T07:51:57.697Z,99945.03
2019-04-30T07:55:00.895Z,99952.63
2019-04-30T07:58:02.763Z,99951.08
2019-04-30T08:01:04.715Z,99956.61
2019-04-30T08:04:14.357Z,99960.06
2019-04-30T08:07:16.304Z,99953.13
2019-04-30T08:10:18.884Z,99948.73
2019-04-30T08:13:22.058Z,99958.59
2019-04-30T08:16:24.560Z,99967.49
2019-04-30T08:19:26.494Z,99959.86
2019-04-30T08:22:29.720Z,99964.62
2019-04-30T08:25:32.014Z,99952.53
2019-04-30T08:28:34.004Z,99960.72
2019-04-30T08:31:40.678Z,99957.34
2019-04-30T08:34:40.803Z,99953.70
2019-04-30T08:37:42.741Z,99963.25
2019-04-30T08:40:55.597Z,99966.57
2019-04-30T08:43:49.690Z,99966.57
2019-04-30T08:46:51.939Z,99969.05
2019-04-30T08:49:53.895Z,99975.52
2019-04-30T08:52:56.107Z,99970.90
2019-04-30T08:55:59.154Z,99970.51
2019-04-30T08:59:01.314Z,99965.11
2019-04-30T09:02:13.640Z,99967.27
2019-04-30T09:05:18.623Z,99973.19
2019-04-30T09:08:20.592Z,99986.48
2019-04-30T09:11:30.167Z,100009.03
2019-04-30T09:14:26.339Z,99987.30
2019-04-30T09:17:29.689Z,99978.23
2019-04-30T09:20:31.920Z,99988.95
2019-04-30T09:23:44.115Z,99986.52
2019-04-30T09:26:39.191Z,99995.14
2019-04-30T09:30:02.224Z,99987.60
2019-04-30T09:33:06.070Z,99990.11
2019-04-30T09:36:09.230Z,99994.02
2019-04-30T09:39:11.626Z,99986.48
2019-04-30T09:42:13.572Z,99982.98
2019-04-30T09:45:15.763Z,99969.66
2019-04-30T09:48:19.017Z,99974.75
2019-04-30T09:51:24.197Z,99970.12
2019-04-30T09:54:29.009Z,99975.59
2019-04-30T09:57:31.749Z,99975.38
2019-04-30T10:00:33.697Z,99977.92
2019-04-30T10:03:36.441Z,99983.47
2019-04-30T10:06:40.356Z,99980.96
2019-04-30T10:09:42.440Z,99970.87
2019-04-30T10:12:44.411Z,99973.30
2019-04-30T10:15:50.133Z,99960.94
2019-04-30T10:18:53.640Z,99960.94
2019-04-30T10:21:58.961Z,99961.97
2019-04-30T10:25:06.675Z,99959.54
2019-04-30T10:28:09.969Z,99955.33
2019-04-30T10:31:12.755Z,99954.84
2019-04-30T10:34:15.204Z,99953.20
2019-04-30T10:37:18.919Z,99951.80
2019-04-30T10:40:21.169Z,99958.70
2019-04-30T10:43:23.213Z,99949.61
2019-04-30T10:46:25.995Z,99949.31
2019-04-30T10:49:29.167Z,99945.12
2019-04-30T10:52:32.183Z,99942.73
2019-04-30T10:55:38.749Z,99942.73
2019-04-30T10:58:41.119Z,99938.25
2019-04-30T11:01:43.074Z,99938.25
2019-04-30T11:04:44.984Z,99941.22
2019-04-30T11:07:46.926Z,99932.05
2019-04-30T11:10:48.796Z,99941.69
2019-04-30T11:13:50.743Z,99936.19
2019-04-30T11:16:52.980Z,99928.06
2019-04-30T11:19:55.576Z,99927.06
2019-04-30T11:22:58.203Z,99925.53
2019-04-30T11:26:01.213Z,99930.01
2019-04-30T11:29:04.074Z,99929.95
2019-04-30T11:32:08.200Z,99926.13
2019-04-30T11:35:10.703Z,99927.14
2019-04-30T11:38:12.655Z,99925.33
2019-04-30T11:41:14.688Z,99923.83
2019-04-30T11:44:29.853Z,99925.59
2019-04-30T11:47:25.598Z,99922.47
2019-04-30T11:50:30.014Z,99915.47
2019-04-30T11:53:31.385Z,99917.94
2019-04-30T11:56:33.790Z,99916.98
2019-04-30T11:59:35.768Z,99916.15
2019-04-30T12:02:39.442Z,99916.34
2019-04-30T12:05:41.429Z,99910.02
2019-04-30T12:09:00.613Z,99908.94
2019-04-30T12:12:02.593Z,99909.02
2019-04-30T12:15:06.357Z,99904.41
2019-04-30T12:18:09.366Z,99904.76
2019-04-30T12:21:12.415Z,99902.47
2019-04-30T12:24:14.361Z,99895.83
2019-04-30T12:27:16.264Z,99885.93
2019-04-30T12:30:20.742Z,99888.24
2019-04-30T12:33:23.195Z,99891.42
2019-04-30T12:36:25.154Z,99889.62
2019-04-30T12:39:29.807Z,99881.75
2019-04-30T12:42:51.767Z,99878.14
2019-04-30T12:46:02.658Z,99868.23
2019-04-30T12:49:05.511Z,99878.23
2019-04-30T12:52:11.755Z,99866.30
2019-04-30T12:55:32.247Z,99858.59
2019-04-30T12:58:34.228Z,99858.59
2019-04-30T13:01:36.157Z,99854.40
2019-04-30T13:07:42.015Z,99848.69
2019-04-30T13:10:45.191Z,99853.25
2019-04-30T13:13:50.035Z,99845.47
2019-04-30T13:16:51.504Z,99839.80
2019-04-30T13:19:53.580Z,99822.98
2019-04-30T13:22:55.491Z,99835.83
2019-04-30T13:25:58.469Z,99822.75
2019-04-30T13:29:18.280Z,99822.58
2019-04-30T13:32:29.556Z,99823.49
2019-04-30T13:35:24.066Z,99814.33
2019-04-30T13:38:28.926Z,99809.47
2019-04-30T13:41:38.163Z,99806.01
2019-04-30T13:44:40.406Z,99806.01
2019-04-30T13:47:42.352Z,99804.18
2019-04-30T13:50:44.481Z,99802.32
2019-04-30T13:53:46.423Z,99805.58
2019-04-30T13:56:49.337Z,99806.20
2019-04-30T14:03:01.638Z,99804.19
2019-04-30T14:06:05.029Z,99784.27
2019-04-30T14:09:27.145Z,99784.27
2019-04-30T14:12:30.949Z,99796.76
2019-04-30T14:15:33.107Z,99793.58
2019-04-30T14:18:35.048Z,99791.59
2019-04-30T14:21:39.003Z,99797.52
2019-04-30T14:24:40.996Z,99804.30
2019-04-30T14:27:49.425Z,99801.58
2019-04-30T14:30:46.907Z,99796.08
2019-04-30T14:33:48.805Z,99792.61
2019-04-30T14:36:50.777Z,99793.24
2019-04-30T14:39:53.218Z,99789.92
2019-04-30T14:43:04.625Z,99787.41
2019-04-30T14:46:27.644Z,99789.52
2019-04-30T14:49:39.131Z,99791.75
2019-04-30T14:52:43.787Z,99777.84
2019-04-30T14:55:49.447Z,99777.84
2019-04-30T14:59:09.851Z,99773.45
2019-04-30T15:02:19.508Z,99773.45
2019-04-30T15:05:21.842Z,99778.33
2019-04-30T15:08:23.812Z,99778.33
2019-04-30T15:11:25.805Z,99771.86
2019-04-30T15:14:27.737Z,99778.77
2019-04-30T15:17:29.821Z,99784.64
2019-04-30T15:20:31.785Z,99774.45
2019-04-30T15:23:38.157Z,99774.45
2019-04-30T15:26:41.336Z,99771.94
2019-04-30T15:29:43.485Z,99771.94
2019-04-30T15:32:47.231Z,99768.83
2019-04-30T15:35:50.316Z,99757.87
2019-04-30T15:39:10.763Z,99763.66
2019-04-30T15:42:13.286Z,99766.72
2019-04-30T15:45:16.937Z,99764.22
2019-04-30T15:48:19.627Z,99758.85
2019-04-30T15:51:21.848Z,99757.55
2019-04-30T15:54:24.151Z,99760.20
2019-04-30T15:57:26.126Z,99767.10
2019-04-30T16:00:31.333Z,99759.81
2019-04-30T16:03:38.585Z,99768.56
2019-04-30T16:06:40.629Z,99761.52
2019-04-30T16:09:48.606Z,99765.73
2019-04-30T16:13:09.694Z,99775.59
2019-04-30T16:16:13.190Z,99772.84
2019-04-30T16:19:15.369Z,99772.20
2019-04-30T16:22:19.179Z,99772.41
2019-04-30T16:25:21.481Z,99769.39
2019-04-30T16:28:23.433Z,99765.69
2019-04-30T16:31:25.442Z,99771.65
2019-04-30T16:34:30.146Z,99775.47
2019-04-30T16:37:31.323Z,99776.19
2019-04-30T16:40:33.237Z,99765.48
2019-04-30T16:43:35.194Z,99774.56
2019-04-30T16:46:37.153Z,99778.17
2019-04-30T16:49:39.147Z,99775.28
2019-04-30T16:52:41.089Z,99772.72
2019-04-30T16:55:43.274Z,99771.80
2019-04-30T16:59:02.335Z,99775.26
2019-04-30T17:02:04.706Z,99768.06
2019-04-30T17:05:11.255Z,99774.75
2019-04-30T17:08:31.435Z,99770.24
2019-04-30T17:11:53.201Z,99768.69
2019-04-30T17:15:14.001Z,99780.51
2019-04-30T17:18:15.908Z,99786.28
2019-04-30T17:21:19.703Z,99785.56
2019-04-30T17:24:22.714Z,99783.58
2019-04-30T17:27:24.774Z,99782.12
2019-04-30T17:30:29.327Z,99783.66
2019-04-30T17:33:31.592Z,99785.59
2019-04-30T17:36:35.003Z,99782.49
2019-04-30T17:39:40.851Z,99787.90
2019-04-30T17:42:41.122Z,99781.43
2019-04-30T17:45:43.795Z,99782.97
2019-04-30T17:48:45.728Z,99788.23
2019-04-30T17:51:49.135Z,99786.63
2019-04-30T17:54:51.295Z,99785.47
2019-04-30T17:57:55.033Z,99799.23
2019-04-30T18:01:00.666Z,99797.24
2019-04-30T18:04:02.668Z,99795.74
2019-04-30T18:07:05.149Z,99790.22
2019-04-30T18:10:09.154Z,99797.58
2019-04-30T18:13:12.406Z,99805.12
2019-04-30T18:16:14.380Z,99801.95
2019-04-30T18:19:34.571Z,99803.27
2019-04-30T18:22:41.510Z,99807.32
2019-04-30T18:25:48.166Z,99805.94
2019-04-30T18:28:50.353Z,99812.06
2019-04-30T18:31:52.302Z,99815.41
2019-04-30T18:34:54.393Z,99815.06
2019-04-30T18:37:58.649Z,99823.20
2019-04-30T18:41:00.767Z,99823.73
2019-04-30T18:44:03.935Z,99823.41
2019-04-30T18:47:05.891Z,99817.75
2019-04-30T18:50:10.231Z,99823.09
2019-04-30T18:53:18.539Z,99826.77
2019-04-30T18:56:20.726Z,99822.35
2019-04-30T18:59:22.859Z,99828.30
2019-04-30T19:02:24.799Z,99827.16
2019-04-30T19:05:29.362Z,99830.23
2019-04-30T19:08:35.273Z,99835.52
2019-04-30T19:11:49.390Z,99834.80
2019-04-30T19:14:53.897Z,99840.44
2019-04-30T19:18:00.496Z,99834.84
2019-04-30T19:21:05.654Z,99831.06
2019-04-30T19:24:08.641Z,99839.12
2019-04-30T19:27:10.938Z,99834.22
2019-04-30T19:30:15.132Z,99834.22
2019-04-30T19:33:18.781Z,99832.08
2019-04-30T19:36:35.104Z,99832.08
2019-04-30T19:39:26.752Z,99828.17
2019-04-30T19:42:29.770Z,99827.66
2019-04-30T19:45:39.292Z,99833.20
2019-04-30T19:48:44.436Z,99823.91
2019-04-30T19:51:46.767Z,99833.08
2019-04-30T19:54:50.895Z,99829.80
2019-04-30T19:57:55.274Z,99827.09
2019-04-30T20:00:59.421Z,99827.72
2019-04-30T20:04:01.388Z,99824.89
2019-04-30T20:07:03.436Z,99826.66
2019-04-30T20:10:09.069Z,99828.91
2019-04-30T20:13:11.737Z,99830.54
2019-04-30T20:16:13.688Z,99821.38
2019-04-30T20:19:18.144Z,99827.77
2019-04-30T20:22:20.440Z,99827.41
2019-04-30T20:25:24.346Z,99820.61
2019-04-30T20:28:38.526Z,99828.44
2019-04-30T20:31:32.377Z,99824.76
2019-04-30T20:34:34.317Z,99826.63
2019-04-30T20:37:40.965Z,99828.34
2019-04-30T20:40:57.036Z,99821.73
2019-04-30T20:43:49.433Z,99824.95
2019-04-30T20:46:54.283Z,99822.67
2019-04-30T20:49:58.688Z,99824.25
2019-04-30T20:53:00.609Z,99821.64
2019-04-30T20:56:02.649Z,99825.27
2019-04-30T20:59:08.086Z,99821.13
2019-04-30T21:02:09.414Z,99830.04
2019-04-30T21:05:11.763Z,99826.56
2019-04-30T21:08:13.747Z,99823.72
2019-04-30T21:11:16.944Z,99821.67
2019-04-30T21:14:19.390Z,99828.95
2019-04-30T21:17:21.501Z,99835.48
2019-04-30T21:20:23.485Z,99818.34
2019-04-30T21:23:25.444Z,99833.00
2019-04-30T21:26:27.424Z,99831.62
2019-04-30T21:29:29.654Z,99836.20
2019-04-30T21:32:50.542Z,99837.58
2019-04-30T21:35:54.329Z,99832.63
2019-04-30T21:38:56.400Z,99839.77
2019-04-30T21:41:59.426Z,99835.63
2019-04-30T21:45:01.622Z,99837.53
2019-04-30T21:48:03.589Z,99841.10
2019-04-30T21:51:05.518Z,99842.86
2019-04-30T21:54:07.520Z,99826.58
2019-04-30T21:57:09.431Z,99831.91
2019-04-30T22:00:14.931Z,99828.23
2019-04-30T22:03:19.698Z,99825.01
2019-04-30T22:06:21.864Z,99826.00
2019-04-30T22:09:23.851Z,99824.47
2019-04-30T22:12:25.794Z,99819.04
2019-04-30T22:15:27.884Z,99817.55
2019-04-30T22:18:29.872Z,99818.20
2019-04-30T22:21:31.914Z,99818.39
2019-04-30T22:24:33.913Z,99825.14
2019-04-30T22:27:35.829Z,99820.84
2019-04-30T22:30:37.832Z,99818.25
2019-04-30T22:33:39.877Z,99817.87
2019-04-30T22:36:43.628Z,99825.37
2019-04-30T22:39:49.555Z,99815.20
2019-04-30T22:42:51.474Z,99817.80
2019-04-30T22:46:01.274Z,99823.57
2019-04-30T22:49:03.322Z,99821.73
2019-04-30T22:52:05.354Z,99817.85
2019-04-30T22:55:07.530Z,99819.62
2019-04-30T22:58:09.519Z,99815.20
2019-04-30T23:01:19.722Z,99817.14
2019-04-30T23:04:28.147Z,99815.45
2019-04-30T23:07:31.175Z,99817.21
2019-04-30T23:10:35.954Z,99812.58
2019-04-30T23:13:39.071Z,99811.02
2019-04-30T23:16:41.280Z,99800.81
2019-04-30T23:19:49.347Z,99802.23
2019-04-30T23:22:48.498Z,99799.79
2019-04-30T23:25:51.515Z,99806.21
2019-04-30T23:28:53.525Z,99799.73
2019-04-30T23:31:55.420Z,99806.77
2019-04-30T23:34:57.437Z,99799.42
2019-04-30T23:37:59.339Z,99798.06
2019-04-30T23:41:01.321Z,99791.05
2019-04-30T23:44:03.545Z,99784.53
2019-04-30T23:47:05.566Z,99783.95
2019-04-30T23:50:07.478Z,99787.95
2019-04-30T23:53:09.675Z,99780.91
2019-04-30T23:56:11.623Z,99775.50
2019-04-30T23:59:13.508Z,99777.81
